• Join FlightAware (Why Join?)
  • Login
  • US Flag 
02:44PM EDT


 

Airport Tracker/Info


-or-


 

Live Flight TrackerFlight Track Log ✈ RPA3411 ✈ 14-Feb-2014 ✈ KPWM - KPHL

Flight Track Log - Related Links

Times and Time Zones

All times are in EST time to prevent confusion due to time zone crossing. See the RPA3411 flight status page for this flight to view local times or setup timezone preferences in your user account.

Time Position Orientation Groundspeed Altitude Reporting Facility
EST Latitude Longitude Course Direction KTS MPH feet Rate Location/Type
06:33PM 43.6483 -70.3544 226° Southwest 139 160 1,800  Level Boston Center
06:34PM 43.6525 -70.4158 275° West 160 184 3,800 2,580 Climbing Boston Center
06:35PM 43.6197 -70.4867 237° Southwest 237 273 7,200 3,120 Climbing Boston Center
06:36PM 43.5567 -70.5433 213° Southwest 269 310 10,300 2,820 Climbing Boston Center
06:37PM 43.4155 -70.3517 226° Southwest  Level FlightAware Approximate
06:37PM 43.4819 -70.5897 204° Southwest 302 348 13,000  Level Boston Center
06:38PM 43.3595 -70.4300 226° Southwest  Level FlightAware Approximate
06:38PM 43.3975 -70.6228 196° South 314 361 15,700  Level Boston Center
06:39PM 43.3100 -70.6600 197° South 325 374 19,100 2,460 Climbing Boston Center
06:40PM 43.2283 -70.6919 196° South 332 382 20,800 2,160 Climbing Boston Center
06:41PM 43.1192 -70.7436 199° South 345 397 23,500 2,340 Climbing Boston Center
06:42PM 43.0336 -70.8089 209° Southwest 351 404 25,700 1,740 Climbing Boston Center
06:43PM 42.9464 -70.8719 208° Southwest 354 407 27,100 1,080 Climbing Boston Center
06:44PM 42.8500 -70.9428 208° Southwest 397 457 28,000 420 Climbing Boston Center
06:45PM 42.7572 -70.9906 201° Southwest 374 430 28,000  Level Boston Center
06:46PM 42.6622 -71.0203 193° South 360 414 28,000 -300 Level Boston Center
06:47PM 42.5600 -71.0269 183° South 367 422 27,500 -780 Descending Boston Center
06:48PM 42.4594 -71.0314 182° South 365 420 26,500 -1,140 Descending Boston Center
06:49PM 42.3342 -71.0392 183° South 374 430 25,300 -1,020 Descending Boston Center
06:50PM 42.2569 -71.1106 214° Southwest 341 392 24,500 -660 Descending Boston Center
06:51PM 42.1864 -71.1906 220° Southwest 332 382 24,000 -300 Descending Boston Center
06:52PM 42.1189 -71.2633 219° Southwest 330 380 24,000  Level Boston Center
06:53PM 42.0481 -71.3389 218° Southwest 325 374 24,000  Level Boston Center
06:54PM 41.9942 -71.3969 219° Southwest 316 364 24,000  Level Boston Center
06:55PM 41.9136 -71.4844 219° Southwest 311 358 24,000  Level Boston Center
06:56PM 41.8306 -71.5714 218° Southwest 314 361 24,000  Level Boston Center
06:57PM 41.7606 -71.6453 218° Southwest 318 366 24,000  Level Boston Center
06:58PM 41.6908 -71.7186 218° Southwest 319 367 24,000  Level Boston Center
06:59PM 41.6206 -71.7933 218° Southwest 320 368 24,000  Level Boston Center
07:00PM 41.5492 -71.8675 218° Southwest 321 369 24,000  Level Boston Center
07:01PM 41.4839 -71.9364 218° Southwest 318 366 24,000  Level Boston Center
07:02PM 41.4158 -72.0067 218° Southwest 312 359 24,000  Level Boston Center
07:03PM 41.3336 -72.0933 218° Southwest 312 359 24,000  Level Boston Center
07:04PM 41.2644 -72.1647 218° Southwest 314 361 24,000  Level Boston Center
07:05PM 41.1953 -72.2358 218° Southwest 316 364 24,000  Level Boston Center
07:06PM 41.1239 -72.3108 218° Southwest 315 362 24,000  Level Boston Center
07:07PM 41.0539 -72.3825 218° Southwest 316 364 24,000  Level Boston Center
07:08PM 40.9847 -72.4528 217° Southwest 314 361 24,000  Level Boston Center
07:09PM 40.9158 -72.5242 218° Southwest 315 362 24,000  Level Boston Center
07:10PM 40.8450 -72.5989 219° Southwest 322 371 24,000  Level Boston Center
07:11PM 40.7842 -72.6567 216° Southwest 330 380 24,000  Level Boston Center
07:12PM 40.6869 -72.7589 219° Southwest 347 399 24,000  Level Boston Center
07:13PM 40.6100 -72.8369 218° Southwest 349 402 24,000 -180 Level Boston Center
07:14PM 40.5322 -72.9147 217° Southwest 350 403 23,700 -1,080 Descending Boston Center
07:15PM 40.4575 -72.9897 217° Southwest 342 394 21,900 -1,800 Descending Boston Center
07:16PM 40.3847 -73.0636 218° Southwest 332 382 20,100 -1,020 Descending Boston Center
07:17PM 40.3153 -73.1336 218° Southwest 340 391 20,000 -60 Descending New York Center
07:18PM 40.2408 -73.2047 216° Southwest 340 391 20,000  Level New York Center
07:19PM 40.1706 -73.2781 219° Southwest 335 386 20,000  Level New York Center
07:20PM 40.1003 -73.3489 218° Southwest 330 380 20,000  Level New York Center
07:21PM 40.0278 -73.4219 218° Southwest 330 380 20,000 -360 Level New York Center
07:22PM 39.9489 -73.4975 216° Southwest 330 380 19,300 -720 Descending New York Center
07:23PM 39.8825 -73.5733 221° Southwest 330 380 18,600 -840 Descending New York Center
07:24PM 39.8261 -73.6603 230° Southwest 325 374 17,700 -900 Descending New York Center
07:25PM 39.7739 -73.7472 232° Southwest 319 367 16,900 -960 Descending New York Center
07:27PM 39.7111 -73.8464 231° Southwest 301 346 15,500 -1,080 Descending Washington Center
07:28PM 39.6583 -73.9311 231° Southwest 301 346 14,400 -840 Descending Washington Center
07:29PM 39.6072 -74.0106 230° Southwest 307 353 13,900 -300 Descending Washington Center
07:30PM 39.5542 -74.0950 231° Southwest 307 353 13,900  Level Washington Center
07:31PM 39.5219 -74.1872 246° West 302 348 13,900 -420 Level Washington Center
07:32PM 39.5253 -74.2975 272° West 283 326 13,100 -960 Descending Washington Center
07:33PM 39.5283 -74.4022 272° West 295 339 12,100 -960 Descending Washington Center
07:35PM 39.5333 -74.6333 272° West 237 273 10,000 -900 Descending Philadelphia TRACON
07:36PM 39.5333 -74.7333 270° West 237 273 9,100 -480 Descending Philadelphia TRACON
07:37PM 39.5333 -74.8167 270° West 235 270 9,000 -720 Descending Philadelphia TRACON
07:38PM 39.5500 -74.9000 285° West 231 266 7,700 -1,500 Descending Philadelphia TRACON
07:39PM 39.6167 -74.9000 360° North 266 306 6,000 -900 Descending Philadelphia TRACON
07:40PM 39.6833 -74.9167 349° North 266 306 6,000  Level Philadelphia TRACON
07:41PM 39.7500 -74.9167 360° North 245 282 6,000 -420 Level Philadelphia TRACON
07:42PM 39.8167 -74.9167 360° North 180 207 5,200 -1,080 Descending Philadelphia TRACON
07:43PM 39.8667 -74.9167 360° North 187 215 3,900 -1,140 Descending Philadelphia TRACON
07:44PM 39.9000 -74.9500 323° Northwest 169 194 3,000 -480 Descending Philadelphia TRACON
07:45PM 39.9167 -75.0000 294° West 163 188 3,000 -180 Level Philadelphia TRACON
07:46PM 39.9000 -75.0500 247° West 158 182 2,700 -600 Descending Philadelphia TRACON
07:47PM 39.9000 -75.1167 270° West 163 188 1,800 -900 Descending Philadelphia TRACON
07:48PM 39.8833 -75.1667 247° West 116 133 1,000 -720 Descending Philadelphia TRACON
07:49PM 39.8833 -75.2000 270° West 120 138 400 -600 Descending Philadelphia TRACON